Time;durP1;ratioP1;P1;durP2;ratioP2;P2;SDS_P1;SDS_P2;PMS_P1;PMS_P2;Temp;Humidity;BMP_temperature;BMP_pressure;BME280_temperature;BME280_humidity;BME280_pressure;Samples;Min_cycle;Max_cycle;Signal;HPM_P1;HPM_P2
2024/03/20 00:00:11;;;;;;;;;;;;;;;19.64;42.88;101607.59;2050508;28;7772;-62
2024/03/20 00:01:12;;;;;;;;;;;;;;;19.64;42.87;101604.72;2047832;28;2120;-62
2024/03/20 00:02:12;;;;;;;;;;;;;;;19.64;42.87;101610.47;2050807;28;2216;-61
2024/03/20 00:03:13;;;;;;;;;;;;;;;19.63;42.80;101597.50;2048994;28;2114;-61
2024/03/20 00:04:13;;;;;;;;;;;;;;;19.63;42.86;101608.97;2049782;28;2141;-61
2024/03/20 00:05:15;;;;;;;;;;;;;;;19.64;42.80;101609.72;2059037;28;2167;-61
2024/03/20 00:06:16;;;;;;;;;;;;;;;19.63;42.87;101603.22;2057880;28;2147;-61
2024/03/20 00:07:16;;;;;;;;;;;;;;;19.63;42.87;101606.09;2051892;28;1677;-62
2024/03/20 00:08:17;;;;;;;;;;;;;;;19.62;42.91;101598.09;2050902;28;2134;-62
2024/03/20 00:09:19;;;;;;;;;;;;;;;19.61;42.68;101600.22;2050335;28;2240;-61
2024/03/20 00:10:20;;;;;;;;;;;;;;;19.63;42.87;101605.34;2052611;28;2431;-62
2024/03/20 00:11:20;;;;;;;;;;;;;;;19.63;42.82;101608.22;2051469;28;1709;-62
2024/03/20 00:12:21;;;;;;;;;;;;;;;19.62;42.78;101604.59;2052636;28;2019;-62
2024/03/20 00:13:22;;;;;;;;;;;;;;;19.61;42.87;101600.22;2051691;28;2124;-61
2024/03/20 00:14:23;;;;;;;;;;;;;;;19.61;42.85;101605.97;2053996;28;2156;-62
2024/03/20 00:15:23;;;;;;;;;;;;;;;19.62;42.78;101603.84;2053321;28;2233;-61
2024/03/20 00:16:24;;;;;;;;;;;;;;;19.61;42.79;101597.34;2062039;28;2145;-62
2024/03/20 00:17:24;;;;;;;;;;;;;;;19.61;42.81;101596.63;2059871;28;2070;-62
2024/03/20 00:18:25;;;;;;;;;;;;;;;19.61;42.85;101599.50;2052421;28;2593;-62
2024/03/20 00:19:25;;;;;;;;;;;;;;;19.60;42.88;101587.22;2051061;28;2168;-61
2024/03/20 00:20:26;;;;;;;;;;;;;;;19.60;42.88;101598.72;2053352;28;1791;-61
2024/03/20 00:21:26;;;;;;;;;;;;;;;19.60;42.88;101592.97;2052798;28;1776;-61
2024/03/20 00:22:27;;;;;;;;;;;;;;;19.61;42.82;101590.88;2055063;28;1675;-61
2024/03/20 00:23:27;;;;;;;;;;;;;;;19.59;42.76;101582.88;2052804;28;2104;-61
2024/03/20 00:24:29;;;;;;;;;;;;;;;19.59;43.06;101585.00;2054140;28;2298;-61
2024/03/20 00:25:29;;;;;;;;;;;;;;;19.60;42.79;101580.75;2057909;28;2288;-61
2024/03/20 00:26:29;;;;;;;;;;;;;;;19.59;42.79;101580.00;2051148;28;2347;-61
2024/03/20 00:27:30;;;;;;;;;;;;;;;19.59;42.82;101574.25;2054682;28;2177;-61
2024/03/20 00:28:30;;;;;;;;;;;;;;;19.59;42.68;101577.13;2052318;28;2268;-61
2024/03/20 00:29:31;;;;;;;;;;;;;;;19.59;42.76;101576.38;2052087;28;2492;-61
2024/03/20 00:30:31;;;;;;;;;;;;;;;19.59;42.85;101580.00;2056504;28;6212;-61
2024/03/20 00:31:31;;;;;;;;;;;;;;;19.59;42.79;101573.50;2057560;28;2304;-61
2024/03/20 00:32:32;;;;;;;;;;;;;;;19.59;42.70;101579.25;2052856;28;2073;-61
2024/03/20 00:33:32;;;;;;;;;;;;;;;19.58;42.75;101584.22;2052786;28;1739;-61
2024/03/20 00:34:32;;;;;;;;;;;;;;;19.57;42.68;101577.00;2052596;28;2082;-61
2024/03/20 00:35:33;;;;;;;;;;;;;;;19.57;42.80;101574.13;2053312;28;2381;-61
2024/03/20 00:36:34;;;;;;;;;;;;;;;19.57;42.84;101579.88;2052658;28;2066;-61
2024/03/20 00:37:34;;;;;;;;;;;;;;;19.57;42.83;101577.00;2053321;28;1687;-61
2024/03/20 00:38:34;;;;;;;;;;;;;;;19.57;42.76;101579.88;2061275;28;2139;-61
2024/03/20 00:39:35;;;;;;;;;;;;;;;19.56;42.67;101587.00;2061966;28;1647;-61
2024/03/20 00:40:35;;;;;;;;;;;;;;;19.57;42.74;101577.00;2061471;28;1700;-61
2024/03/20 00:41:36;;;;;;;;;;;;;;;19.57;42.73;101576.25;2052338;28;2374;-61
2024/03/20 00:42:36;;;;;;;;;;;;;;;19.56;42.70;101572.63;2061982;28;1794;-61
2024/03/20 00:43:37;;;;;;;;;;;;;;;19.56;42.73;101578.38;2062696;28;2071;-61
2024/03/20 00:44:37;;;;;;;;;;;;;;;19.55;42.79;101579.75;2054502;28;2604;-61
2024/03/20 00:45:37;;;;;;;;;;;;;;;19.56;42.66;101580.47;2053356;28;2153;-61
2024/03/20 00:46:38;;;;;;;;;;;;;;;19.55;42.64;101582.63;2050927;28;2077;-60
2024/03/20 00:47:38;;;;;;;;;;;;;;;19.56;42.62;101575.50;2050576;28;2304;-61
2024/03/20 00:48:38;;;;;;;;;;;;;;;19.56;42.69;101584.13;2057007;28;2131;-61
2024/03/20 00:49:39;;;;;;;;;;;;;;;19.56;42.70;101575.50;2050945;28;2101;-61
2024/03/20 00:50:39;;;;;;;;;;;;;;;19.56;42.62;101578.38;2052843;28;2297;-61
2024/03/20 00:51:40;;;;;;;;;;;;;;;19.55;42.74;101574.00;2058185;28;2134;-60
2024/03/20 00:52:41;;;;;;;;;;;;;;;19.55;42.74;101567.50;2057278;28;2282;-61
2024/03/20 00:53:41;;;;;;;;;;;;;;;19.55;42.71;101568.25;2050708;28;2128;-60
2024/03/20 00:54:41;;;;;;;;;;;;;;;19.55;42.70;101576.88;2051272;28;2120;-60
2024/03/20 00:55:42;;;;;;;;;;;;;;;19.53;42.76;101559.50;2059238;28;2219;-61
2024/03/20 00:56:43;;;;;;;;;;;;;;;19.54;42.61;101572.50;2053255;28;2120;-60
2024/03/20 00:57:43;;;;;;;;;;;;;;;19.54;42.61;101575.38;2058906;28;2166;-61
2024/03/20 00:58:43;;;;;;;;;;;;;;;19.53;42.82;101565.25;2060037;28;2209;-60
2024/03/20 00:59:44;;;;;;;;;;;;;;;19.54;42.63;101572.50;2057864;28;2154;-60
2024/03/20 01:00:45;;;;;;;;;;;;;;;19.54;42.69;101574.59;2050761;28;6333;-60
2024/03/20 01:01:45;;;;;;;;;;;;;;;19.54;42.66;101578.25;2051623;28;2144;-60
2024/03/20 01:02:46;;;;;;;;;;;;;;;19.54;42.73;101572.50;2052069;28;2185;-61
2024/03/20 01:03:46;;;;;;;;;;;;;;;19.53;42.66;101576.75;2051178;28;2605;-60
2024/03/20 01:04:47;;;;;;;;;;;;;;;19.54;42.58;101572.50;2054288;28;2438;-60
2024/03/20 01:05:47;;;;;;;;;;;;;;;19.54;42.71;101574.59;2056449;28;2349;-60
2024/03/20 01:06:48;;;;;;;;;;;;;;;19.54;42.69;101563.13;2051228;28;2241;-60
2024/03/20 01:07:48;;;;;;;;;;;;;;;19.53;42.64;101571.00;2058844;28;2116;-60
2024/03/20 01:08:49;;;;;;;;;;;;;;;19.54;42.63;101578.25;2058802;28;2101;-60
2024/03/20 01:09:49;;;;;;;;;;;;;;;19.54;42.63;101566.75;2049581;28;2137;-60
2024/03/20 01:10:50;;;;;;;;;;;;;;;19.53;42.63;101553.75;2057728;28;2123;-61
2024/03/20 01:11:50;;;;;;;;;;;;;;;19.53;42.49;101559.50;2061202;28;1730;-61
2024/03/20 01:12:51;;;;;;;;;;;;;;;19.53;42.56;101559.50;2055138;28;2085;-61
2024/03/20 01:13:51;;;;;;;;;;;;;;;19.52;42.60;101557.28;2059760;28;2134;-61
2024/03/20 01:14:52;;;;;;;;;;;;;;;19.52;42.54;101555.16;2051464;28;2125;-61
2024/03/20 01:15:52;;;;;;;;;;;;;;;19.51;42.61;101550.75;2059154;28;2500;-60
2024/03/20 01:16:53;;;;;;;;;;;;;;;19.51;42.59;101562.25;2059171;28;2160;-61
2024/03/20 01:17:53;;;;;;;;;;;;;;;19.51;42.71;101547.88;2059374;28;2120;-61
2024/03/20 01:18:54;;;;;;;;;;;;;;;19.51;42.52;101547.88;2051685;28;2192;-60
2024/03/20 01:19:55;;;;;;;;;;;;;;;19.51;42.62;101550.03;2052970;28;2184;-60
2024/03/20 01:20:55;;;;;;;;;;;;;;;19.50;42.57;101549.28;2059803;28;2201;-60
2024/03/20 01:21:55;;;;;;;;;;;;;;;19.50;42.62;101549.28;2061766;28;1653;-61
2024/03/20 01:22:57;;;;;;;;;;;;;;;19.49;42.62;101550.63;2061470;28;2269;-61
2024/03/20 01:23:57;;;;;;;;;;;;;;;19.50;42.60;101545.66;2054286;28;1695;-60
2024/03/20 01:24:57;;;;;;;;;;;;;;;19.49;42.59;101547.75;2052850;28;2077;-61
2024/03/20 01:25:58;;;;;;;;;;;;;;;19.49;42.68;101553.50;2059066;28;2320;-60
2024/03/20 01:26:58;;;;;;;;;;;;;;;19.48;42.58;101546.28;2059309;28;2123;-60
2024/03/20 01:27:59;;;;;;;;;;;;;;;19.47;42.67;101550.53;2050171;28;2138;-60
2024/03/20 01:28:59;;;;;;;;;;;;;;;19.49;42.67;101547.03;2051601;28;2331;-60
2024/03/20 01:30:00;;;;;;;;;;;;;;;19.48;42.61;101549.16;2050942;28;2164;-60
2024/03/20 01:31:00;;;;;;;;;;;;;;;19.48;42.65;101552.03;2048518;28;6004;-60
2024/03/20 01:32:00;;;;;;;;;;;;;;;19.47;42.60;101550.53;2060096;28;2256;-60
2024/03/20 01:33:01;;;;;;;;;;;;;;;19.48;42.52;101554.91;2057933;28;2177;-60
2024/03/20 01:34:01;;;;;;;;;;;;;;;19.47;42.63;101556.28;2052207;28;2152;-63
2024/03/20 01:35:02;;;;;;;;;;;;;;;19.48;42.55;101552.03;2050400;28;2118;-61
2024/03/20 01:36:02;;;;;;;;;;;;;;;19.48;42.60;101554.91;2050589;28;2394;-66
2024/03/20 01:37:03;;;;;;;;;;;;;;;19.48;42.55;101554.91;2052574;28;2046;-63
2024/03/20 01:38:04;;;;;;;;;;;;;;;19.49;42.61;101555.63;2053544;28;1680;-60
2024/03/20 01:39:05;;;;;;;;;;;;;;;19.48;42.65;101557.03;2052753;28;1765;-59
2024/03/20 01:40:06;;;;;;;;;;;;;;;19.47;42.50;101550.53;2057212;28;2092;-59
2024/03/20 01:41:06;;;;;;;;;;;;;;;19.48;42.59;101554.16;2060917;28;2112;-59
2024/03/20 01:42:07;;;;;;;;;;;;;;;19.48;42.62;101552.03;2053147;28;1738;-59
2024/03/20 01:43:18;;;;;;;;;;;;;;;19.47;42.53;101550.53;2053247;28;2090;-60
2024/03/20 01:44:18;;;;;;;;;;;;;;;19.47;42.54;101550.53;2053176;28;2172;-59
2024/03/20 01:45:20;;;;;;;;;;;;;;;19.46;42.63;101551.91;2047642;28;2355;-59
2024/03/20 01:46:25;;;;;;;;;;;;;;;19.45;42.61;101547.53;2052064;28;2097;-59
2024/03/20 01:47:25;;;;;;;;;;;;;;;19.45;42.54;101548.28;2052895;28;2069;-59
2024/03/20 01:48:26;;;;;;;;;;;;;;;19.45;42.63;101553.28;2053611;28;1624;-59
2024/03/20 01:49:26;;;;;;;;;;;;;;;19.46;42.64;101554.78;2054114;28;2166;-59
2024/03/20 01:50:27;;;;;;;;;;;;;;;19.46;42.63;101554.78;2052078;28;2160;-59
2024/03/20 01:51:27;;;;;;;;;;;;;;;19.45;42.58;101559.03;2053205;28;2096;-59
2024/03/20 01:52:28;;;;;;;;;;;;;;;19.45;42.52;101554.03;2054089;28;1918;-59
2024/03/20 01:53:28;;;;;;;;;;;;;;;19.44;42.61;101551.78;2053607;28;1674;-59
2024/03/20 01:54:30;;;;;;;;;;;;;;;19.44;42.48;101557.50;2059202;28;2369;-59
2024/03/20 01:55:31;;;;;;;;;;;;;;;19.44;42.59;101557.50;2049989;28;2231;-59
2024/03/20 01:56:33;;;;;;;;;;;;;;;19.43;42.56;101553.91;2051002;28;2109;-59
2024/03/20 01:57:33;;;;;;;;;;;;;;;19.43;42.61;101556.03;2060183;28;2196;-59
2024/03/20 01:58:33;;;;;;;;;;;;;;;19.43;42.55;101551.03;2057263;28;2100;-59
2024/03/20 01:59:34;;;;;;;;;;;;;;;19.43;42.58;101550.28;2057239;28;2131;-59
2024/03/20 02:00:35;;;;;;;;;;;;;;;19.42;42.60;101551.63;2055686;28;6259;-59
2024/03/20 02:01:35;;;;;;;;;;;;;;;19.42;42.60;101554.50;2058432;28;2108;-59
2024/03/20 02:02:35;;;;;;;;;;;;;;;19.42;42.58;101551.63;2057766;28;2159;-59
2024/03/20 02:03:36;;;;;;;;;;;;;;;19.41;42.61;101547.28;2069006;28;1652;-59
2024/03/20 02:04:36;;;;;;;;;;;;;;;19.41;42.61;101547.28;2059214;28;2256;-59
2024/03/20 02:05:37;;;;;;;;;;;;;;;19.41;42.65;101544.41;2060721;28;2241;-59
2024/03/20 02:06:37;;;;;;;;;;;;;;;19.40;42.67;101551.50;2054005;28;1640;-59
2024/03/20 02:07:38;;;;;;;;;;;;;;;19.41;42.61;101553.03;2051136;28;2216;-57
2024/03/20 02:08:38;;;;;;;;;;;;;;;19.40;42.55;101549.41;2057540;28;2185;-59
2024/03/20 02:09:39;;;;;;;;;;;;;;;19.41;42.53;101555.91;2055630;28;2097;-59
2024/03/20 02:10:39;;;;;;;;;;;;;;;19.41;42.55;101547.28;2058898;28;2096;-59
2024/03/20 02:11:40;;;;;;;;;;;;;;;19.42;42.54;101554.50;2057335;28;2100;-59
2024/03/20 02:12:41;;;;;;;;;;;;;;;19.43;42.51;101558.91;2050295;28;2125;-59
2024/03/20 02:13:48;;;;;;;;;;;;;;;19.42;42.53;101548.78;2050120;28;2244;-59
2024/03/20 02:14:50;;;;;;;;;;;;;;;19.43;42.46;101556.78;2059810;28;2215;-59
2024/03/20 02:15:50;;;;;;;;;;;;;;;19.43;42.54;101553.16;2058676;28;2536;-59
2024/03/20 02:16:51;;;;;;;;;;;;;;;19.44;42.46;101551.78;2050537;28;2134;-59
2024/03/20 02:17:51;;;;;;;;;;;;;;;19.44;42.50;101551.78;2048850;28;2145;-59
2024/03/20 02:18:52;;;;;;;;;;;;;;;19.44;42.45;101551.78;2051165;28;2133;-59
2024/03/20 02:19:52;;;;;;;;;;;;;;;19.45;42.34;101556.16;2050459;28;2172;-59
2024/03/20 02:20:52;;;;;;;;;;;;;;;19.44;42.50;101552.50;2059710;28;2088;-59
2024/03/20 02:21:53;;;;;;;;;;;;;;;19.45;42.40;101553.28;2056331;28;2191;-59
2024/03/20 02:22:54;;;;;;;;;;;;;;;19.45;42.40;101559.03;2053272;28;2354;-59
2024/03/20 02:23:54;;;;;;;;;;;;;;;19.46;42.45;101563.38;2049203;28;2120;-60
2024/03/20 02:24:55;;;;;;;;;;;;;;;19.45;42.62;101559.78;2051049;28;2140;-59
2024/03/20 02:25:55;;;;;;;;;;;;;;;19.46;42.41;101554.78;2052324;28;2264;-59
2024/03/20 02:26:56;;;;;;;;;;;;;;;19.45;42.49;101562.63;2048793;28;2359;-59
2024/03/20 02:27:57;;;;;;;;;;;;;;;19.46;42.43;101549.03;2056557;28;2089;-59
2024/03/20 02:28:57;;;;;;;;;;;;;;;19.46;42.45;101551.91;2056022;28;2139;-59
2024/03/20 02:29:58;;;;;;;;;;;;;;;19.48;42.53;101551.28;2057025;28;2501;-59
2024/03/20 02:30:58;;;;;;;;;;;;;;;19.46;42.53;101551.91;2056008;28;6189;-59
2024/03/20 02:31:59;;;;;;;;;;;;;;;19.47;42.50;101547.66;2057911;28;2222;-59
2024/03/20 02:32:59;;;;;;;;;;;;;;;19.46;42.51;101549.03;2058825;28;2188;-58
2024/03/20 02:33:59;;;;;;;;;;;;;;;19.47;42.54;101547.66;2057022;28;2147;-59
2024/03/20 02:35:00;;;;;;;;;;;;;;;19.45;42.64;101548.28;2058584;28;2187;-59
2024/03/20 02:36:00;;;;;;;;;;;;;;;19.46;42.61;101549.03;2050577;28;2341;-59
2024/03/20 02:37:01;;;;;;;;;;;;;;;19.46;42.56;101549.03;2051551;28;2701;-59
2024/03/20 02:38:01;;;;;;;;;;;;;;;19.46;42.68;101546.16;2057758;28;2607;-59
2024/03/20 02:39:02;;;;;;;;;;;;;;;19.46;42.69;101546.91;2064641;28;2161;-59
2024/03/20 02:40:03;;;;;;;;;;;;;;;19.46;42.71;101546.91;2059114;28;2231;-59
2024/03/20 02:41:04;;;;;;;;;;;;;;;19.47;42.76;101544.78;2052432;28;1772;-59
2024/03/20 02:42:04;;;;;;;;;;;;;;;19.47;42.73;101550.53;2059680;28;2180;-59
2024/03/20 02:43:05;;;;;;;;;;;;;;;19.46;42.83;101549.03;2058983;28;2256;-59
2024/03/20 02:44:05;;;;;;;;;;;;;;;19.46;42.70;101554.78;2049858;28;2669;-59
2024/03/20 02:45:06;;;;;;;;;;;;;;;19.46;42.77;101546.91;2049789;28;2133;-59
2024/03/20 02:46:06;;;;;;;;;;;;;;;19.46;42.84;101551.91;2057588;28;2331;-58
2024/03/20 02:47:06;;;;;;;;;;;;;;;19.46;42.83;101554.78;2065462;28;2123;-59
2024/03/20 02:48:07;;;;;;;;;;;;;;;19.45;42.91;101545.41;2057569;28;2199;-59
2024/03/20 02:49:07;;;;;;;;;;;;;;;19.46;42.92;101563.38;2050408;28;2455;-59
2024/03/20 02:50:08;;;;;;;;;;;;;;;19.46;42.91;101555.50;2058595;28;2255;-58
2024/03/20 02:51:08;;;;;;;;;;;;;;;19.46;42.80;101557.63;2058103;28;2130;-59
2024/03/20 02:52:09;;;;;;;;;;;;;;;19.44;42.87;101564.00;2049964;28;2288;-59
2024/03/20 02:53:09;;;;;;;;;;;;;;;19.45;43.07;101556.16;2056366;28;2115;-59
2024/03/20 02:54:10;;;;;;;;;;;;;;;19.45;42.90;101556.16;2056809;28;2285;-59
2024/03/20 02:55:10;;;;;;;;;;;;;;;19.45;42.90;101556.16;2058910;28;2160;-59
2024/03/20 02:56:10;;;;;;;;;;;;;;;19.45;42.85;101547.53;2058204;28;2308;-59
2024/03/20 02:57:11;;;;;;;;;;;;;;;19.44;42.88;101558.25;2047832;28;2418;-59
2024/03/20 02:58:11;;;;;;;;;;;;;;;19.43;42.96;101551.03;2050679;28;2585;-59
2024/03/20 02:59:12;;;;;;;;;;;;;;;19.44;42.96;101546.75;2049986;28;2076;-58
2024/03/20 03:00:12;;;;;;;;;;;;;;;19.43;43.01;101545.28;2049676;28;6097;-59
2024/03/20 03:01:13;;;;;;;;;;;;;;;19.43;42.99;101539.53;2050735;28;2486;-58
2024/03/20 03:02:13;;;;;;;;;;;;;;;19.44;42.93;101543.16;2049175;28;2331;-58
2024/03/20 03:03:13;;;;;;;;;;;;;;;19.43;42.96;101538.78;2058090;28;2144;-59
2024/03/20 03:04:14;;;;;;;;;;;;;;;19.44;42.87;101540.28;2056583;28;2101;-58
2024/03/20 03:05:14;;;;;;;;;;;;;;;19.43;42.93;101541.66;2049579;28;2137;-59
2024/03/20 03:06:16;;;;;;;;;;;;;;;19.43;42.97;101538.78;2049149;28;2263;-59
2024/03/20 03:07:16;;;;;;;;;;;;;;;19.43;42.87;101541.66;2051346;28;2136;-60
2024/03/20 03:08:16;;;;;;;;;;;;;;;19.43;42.98;101545.28;2051234;28;2141;-59
2024/03/20 03:09:17;;;;;;;;;;;;;;;19.43;42.90;101544.53;2058577;28;2203;-59
2024/03/20 03:10:18;;;;;;;;;;;;;;;19.43;42.89;101538.78;2056933;28;2218;-59
2024/03/20 03:11:19;;;;;;;;;;;;;;;19.43;42.99;101535.91;2056892;28;2163;-59
2024/03/20 03:12:19;;;;;;;;;;;;;;;19.43;42.94;101538.78;2055815;28;2152;-59
2024/03/20 03:13:20;;;;;;;;;;;;;;;19.43;42.97;101544.53;2051021;28;2237;-59
2024/03/20 03:14:20;;;;;;;;;;;;;;;19.42;42.91;101543.03;2049191;28;2265;-58
2024/03/20 03:15:21;;;;;;;;;;;;;;;19.41;42.95;101541.53;2058360;28;2446;-59
2024/03/20 03:16:21;;;;;;;;;;;;;;;19.42;42.98;101548.78;2057480;28;2172;-59
2024/03/20 03:17:21;;;;;;;;;;;;;;;19.41;42.91;101542.28;2049656;28;2290;-59
2024/03/20 03:18:22;;;;;;;;;;;;;;;19.41;42.93;101538.66;2058846;28;2143;-59
2024/03/20 03:19:22;;;;;;;;;;;;;;;19.41;43.00;101544.41;2048188;28;2148;-59
2024/03/20 03:20:26;;;;;;;;;;;;;;;19.40;42.90;101545.78;2050065;28;2443;-59
2024/03/20 03:21:26;;;;;;;;;;;;;;;19.40;42.95;101551.50;2049814;28;2299;-59
2024/03/20 03:22:26;;;;;;;;;;;;;;;19.40;42.92;101545.78;2050021;28;2070;-59
2024/03/20 03:23:27;;;;;;;;;;;;;;;19.40;42.81;101545.78;2051498;28;2779;-59
2024/03/20 03:24:27;;;;;;;;;;;;;;;19.40;42.85;101545.78;2053057;28;2029;-59
2024/03/20 03:25:28;;;;;;;;;;;;;;;19.40;42.88;101537.16;2061565;28;2093;-59
2024/03/20 03:26:28;;;;;;;;;;;;;;;19.39;42.95;101544.28;2059786;28;2249;-59
2024/03/20 03:27:28;;;;;;;;;;;;;;;19.38;42.87;101543.53;2050977;28;2165;-59
2024/03/20 03:28:29;;;;;;;;;;;;;;;19.38;42.92;101548.53;2050275;28;2443;-59
2024/03/20 03:29:29;;;;;;;;;;;;;;;19.37;42.90;101542.03;2057750;28;2240;-59
2024/03/20 03:30:30;;;;;;;;;;;;;;;19.38;42.91;101549.28;2057275;28;6509;-59
2024/03/20 03:31:32;;;;;;;;;;;;;;;19.38;42.84;101543.53;2059309;28;2234;-59
2024/03/20 03:32:32;;;;;;;;;;;;;;;19.39;42.91;101555.78;2058422;28;2217;-59
2024/03/20 03:33:33;;;;;;;;;;;;;;;19.38;42.87;101548.53;2050687;28;2452;-59
2024/03/20 03:34:33;;;;;;;;;;;;;;;19.38;42.83;101539.94;2050478;28;2157;-58
2024/03/20 03:35:34;;;;;;;;;;;;;;;19.39;42.87;101550.03;2058730;28;2079;-59
2024/03/20 03:36:34;;;;;;;;;;;;;;;19.37;42.79;101547.03;2058293;28;2088;-58
2024/03/20 03:37:35;;;;;;;;;;;;;;;19.37;42.80;101541.28;2051474;28;2124;-59
2024/03/20 03:38:36;;;;;;;;;;;;;;;19.37;42.88;101549.91;2051181;28;2101;-59
2024/03/20 03:39:36;;;;;;;;;;;;;;;19.37;42.77;101552.78;2061503;28;1693;-61
2024/03/20 03:40:36;;;;;;;;;;;;;;;19.37;42.76;101549.91;2050790;28;2243;-58
2024/03/20 03:41:37;;;;;;;;;;;;;;;19.37;42.71;101547.03;2056169;28;2079;-59
2024/03/20 03:42:38;;;;;;;;;;;;;;;19.36;42.75;101545.53;2056861;28;2201;-59
2024/03/20 03:43:39;;;;;;;;;;;;;;;19.36;42.71;101545.53;2050802;28;2132;-59
2024/03/20 03:44:39;;;;;;;;;;;;;;;19.37;42.83;101547.03;2055942;28;2271;-59
2024/03/20 03:45:39;;;;;;;;;;;;;;;19.37;42.77;101547.03;2058019;28;2211;-59
2024/03/20 03:46:40;;;;;;;;;;;;;;;19.36;42.74;101545.53;2050459;28;2443;-60
2024/03/20 03:47:40;;;;;;;;;;;;;;;19.36;42.79;101542.66;2052884;28;2490;-59
2024/03/20 03:48:41;;;;;;;;;;;;;;;19.36;42.73;101539.81;2058859;28;2401;-59
2024/03/20 03:49:41;;;;;;;;;;;;;;;19.36;42.80;101552.03;2059362;28;2150;-59
2024/03/20 03:50:42;;;;;;;;;;;;;;;19.36;42.72;101546.28;2052148;28;2081;-59
2024/03/20 03:51:42;;;;;;;;;;;;;;;19.37;42.75;101547.03;2051496;28;2149;-58
2024/03/20 03:52:42;;;;;;;;;;;;;;;19.37;42.69;101552.78;2051363;28;2084;-59
2024/03/20 03:53:43;;;;;;;;;;;;;;;19.38;42.78;101542.81;2059243;28;2226;-58
2024/03/20 03:54:43;;;;;;;;;;;;;;;19.39;42.66;101555.78;2050580;28;2329;-59
2024/03/20 03:55:44;;;;;;;;;;;;;;;19.39;42.66;101550.78;2052603;28;2224;-59
2024/03/20 03:56:44;;;;;;;;;;;;;;;19.39;42.66;101555.78;2051684;28;2186;-59
2024/03/20 03:57:45;;;;;;;;;;;;;;;19.40;42.75;101548.63;2060080;28;2298;-59
2024/03/20 03:58:45;;;;;;;;;;;;;;;19.42;42.49;101548.78;2059310;28;2624;-59
2024/03/20 03:59:45;;;;;;;;;;;;;;;19.40;42.65;101551.50;2054867;28;2152;-59
2024/03/20 04:00:46;;;;;;;;;;;;;;;19.40;42.72;101552.28;2060185;28;6114;-59
2024/03/20 04:01:47;;;;;;;;;;;;;;;19.41;42.68;101550.16;2057638;28;2080;-59
2024/03/20 04:02:47;;;;;;;;;;;;;;;19.42;42.72;101549.53;2053900;28;2640;-59
2024/03/20 04:03:47;;;;;;;;;;;;;;;19.42;42.69;101549.53;2052173;28;1747;-59
2024/03/20 04:04:49;;;;;;;;;;;;;;;19.43;42.76;101556.78;2053679;28;2069;-59
2024/03/20 04:05:51;;;;;;;;;;;;;;;19.42;42.99;101548.78;2053266;28;2191;-59
2024/03/20 04:06:52;;;;;;;;;;;;;;;19.44;42.81;101554.63;2058552;28;2585;-59
2024/03/20 04:07:53;;;;;;;;;;;;;;;19.43;42.93;101551.03;2059251;28;2079;-58
2024/03/20 04:08:53;;;;;;;;;;;;;;;19.44;42.91;101546.03;2058949;28;2604;-58
2024/03/20 04:09:54;;;;;;;;;;;;;;;19.45;42.87;101553.28;2059711;28;2209;-59
2024/03/20 04:10:54;;;;;;;;;;;;;;;19.44;43.01;101552.50;2058644;28;2139;-58
2024/03/20 04:11:54;;;;;;;;;;;;;;;19.45;42.69;101541.78;2049614;28;2513;-59
2024/03/20 04:12:55;;;;;;;;;;;;;;;19.45;42.85;101554.03;2058368;28;2303;-59
2024/03/20 04:13:55;;;;;;;;;;;;;;;19.45;42.73;101548.28;2058857;28;2553;-58
2024/03/20 04:14:56;;;;;;;;;;;;;;;19.46;42.76;101549.03;2052277;28;2270;-59
2024/03/20 04:15:56;;;;;;;;;;;;;;;19.45;42.93;101547.53;2050982;28;2477;-59
2024/03/20 04:16:56;;;;;;;;;;;;;;;19.45;42.92;101541.78;2058515;28;2226;-59
2024/03/20 04:17:57;;;;;;;;;;;;;;;19.46;42.79;101546.16;2059395;28;2249;-58
2024/03/20 04:18:57;;;;;;;;;;;;;;;19.44;43.01;101546.03;2052088;28;2300;-59
2024/03/20 04:19:58;;;;;;;;;;;;;;;19.44;42.79;101546.75;2052070;28;2144;-59
2024/03/20 04:20:58;;;;;;;;;;;;;;;19.45;43.05;101547.53;2051085;28;2203;-58
2024/03/20 04:21:59;;;;;;;;;;;;;;;19.45;42.95;101541.78;2051816;28;2089;-59
2024/03/20 04:23:00;;;;;;;;;;;;;;;19.45;42.99;101551.16;2052056;28;2277;-59
2024/03/20 04:24:01;;;;;;;;;;;;;;;19.45;43.15;101547.53;2051093;28;2164;-59
2024/03/20 04:25:01;;;;;;;;;;;;;;;19.47;43.14;101544.78;2052801;28;2105;-59
2024/03/20 04:26:01;;;;;;;;;;;;;;;19.47;43.12;101544.78;2053181;28;2192;-60
2024/03/20 04:27:02;;;;;;;;;;;;;;;19.47;43.37;101544.78;2051935;28;2159;-59
2024/03/20 04:28:03;;;;;;;;;;;;;;;19.48;43.33;101548.41;2052086;28;2117;-60
2024/03/20 04:29:03;;;;;;;;;;;;;;;19.47;43.35;101539.03;2049828;28;2164;-59
2024/03/20 04:30:06;;;;;;;;;;;;;;;19.48;43.25;101540.53;2052473;28;6365;-60
2024/03/20 04:31:07;;;;;;;;;;;;;;;19.48;43.15;101543.41;2052572;28;2254;-59
2024/03/20 04:32:10;;;;;;;;;;;;;;;19.49;43.35;101544.88;2053291;28;2231;-59
2024/03/20 04:33:10;;;;;;;;;;;;;;;19.48;43.46;101546.28;2053649;28;2314;-59
2024/03/20 04:34:10;;;;;;;;;;;;;;;19.49;43.30;101547.75;2054393;28;1977;-60
2024/03/20 04:35:11;;;;;;;;;;;;;;;19.49;43.29;101547.75;2059600;28;2164;-60
2024/03/20 04:36:12;;;;;;;;;;;;;;;19.50;43.35;101539.91;2057259;28;2158;-59
2024/03/20 04:37:13;;;;;;;;;;;;;;;19.51;43.38;101553.63;2051776;28;2141;-59
2024/03/20 04:38:13;;;;;;;;;;;;;;;19.50;43.38;101543.53;2050240;28;2129;-60
2024/03/20 04:39:14;;;;;;;;;;;;;;;19.50;43.26;101543.53;2050036;28;2231;-60
2024/03/20 04:40:14;;;;;;;;;;;;;;;19.51;43.28;101550.03;2059596;28;2175;-60
2024/03/20 04:41:15;;;;;;;;;;;;;;;19.49;43.43;101547.75;2052119;28;2136;-60
2024/03/20 04:42:16;;;;;;;;;;;;;;;19.50;43.19;101548.53;2052520;28;2380;-60
2024/03/20 04:43:16;;;;;;;;;;;;;;;19.50;43.50;101554.28;2057593;28;2167;-58
2024/03/20 04:44:16;;;;;;;;;;;;;;;19.49;43.35;101550.63;2066652;28;2182;-59
2024/03/20 04:45:17;;;;;;;;;;;;;;;19.50;43.46;101543.53;2059005;28;2462;-60
2024/03/20 04:46:17;;;;;;;;;;;;;;;19.50;43.50;101549.28;2059238;28;2146;-59
2024/03/20 04:47:18;;;;;;;;;;;;;;;19.49;43.45;101559.25;2051801;28;2175;-60
2024/03/20 04:48:18;;;;;;;;;;;;;;;19.50;43.46;101560.75;2060012;28;2180;-59
2024/03/20 04:49:18;;;;;;;;;;;;;;;19.50;43.42;101555.03;2059582;28;2178;-59
2024/03/20 04:50:19;;;;;;;;;;;;;;;19.49;43.50;101553.50;2050746;28;2276;-60
2024/03/20 04:51:19;;;;;;;;;;;;;;;19.50;43.49;101560.75;2061175;28;2308;-59
2024/03/20 04:52:20;;;;;;;;;;;;;;;19.51;43.59;101553.63;2053368;28;2344;-59
2024/03/20 04:53:20;;;;;;;;;;;;;;;19.52;43.47;101558.03;2060591;28;2359;-59
2024/03/20 04:54:20;;;;;;;;;;;;;;;19.51;43.57;101556.50;2057821;28;2092;-59
2024/03/20 04:55:21;;;;;;;;;;;;;;;19.52;43.59;101555.16;2050854;28;2159;-59
2024/03/20 04:56:22;;;;;;;;;;;;;;;19.51;43.70;101553.63;2051153;28;2145;-59
2024/03/20 04:57:22;;;;;;;;;;;;;;;19.54;43.65;101554.50;2056610;28;2184;-59
2024/03/20 04:58:23;;;;;;;;;;;;;;;19.53;43.59;101550.88;2058010;28;2095;-60
2024/03/20 04:59:23;;;;;;;;;;;;;;;19.53;43.77;101548.00;2050062;28;2148;-59
2024/03/20 05:00:23;;;;;;;;;;;;;;;19.54;43.67;101551.63;2050296;28;6339;-60
2024/03/20 05:01:24;;;;;;;;;;;;;;;19.54;43.58;101549.53;2060023;28;2106;-60
2024/03/20 05:02:24;;;;;;;;;;;;;;;19.54;43.71;101555.28;2057450;28;2232;-60
2024/03/20 05:03:25;;;;;;;;;;;;;;;19.54;43.65;101546.66;2051397;28;2229;-60
2024/03/20 05:04:25;;;;;;;;;;;;;;;19.53;43.63;101548.00;2052465;28;2147;-59
2024/03/20 05:05:26;;;;;;;;;;;;;;;19.53;43.57;101542.28;2051187;28;2137;-59
2024/03/20 05:06:26;;;;;;;;;;;;;;;19.55;43.72;101551.00;2059357;28;2642;-60
2024/03/20 05:07:26;;;;;;;;;;;;;;;19.54;43.54;101540.91;2069223;28;1561;-60
2024/03/20 05:08:27;;;;;;;;;;;;;;;19.54;43.60;101543.78;2060386;28;2058;-60
2024/03/20 05:09:27;;;;;;;;;;;;;;;19.55;43.78;101539.53;2054268;28;1687;-60
2024/03/20 05:10:28;;;;;;;;;;;;;;;19.55;43.61;101551.00;2050468;28;2335;-60
2024/03/20 05:11:28;;;;;;;;;;;;;;;19.54;43.72;101543.78;2052241;28;2181;-59
2024/03/20 05:12:28;;;;;;;;;;;;;;;19.55;43.64;101539.53;2050470;28;2125;-59
2024/03/20 05:13:29;;;;;;;;;;;;;;;19.54;43.62;101546.66;2051825;28;2180;-59
2024/03/20 05:14:29;;;;;;;;;;;;;;;19.54;43.70;101540.91;2059498;28;2130;-60
2024/03/20 05:15:30;;;;;;;;;;;;;;;19.53;43.68;101536.53;2058226;28;2570;-59